createdAt,value
2022-07-29T00:01:43.793Z,20.96
2022-07-29T00:04:13.085Z,20.90
2022-07-29T00:06:44.131Z,20.85
2022-07-29T00:09:14.720Z,20.79
2022-07-29T00:11:44.637Z,20.72
2022-07-29T00:14:13.258Z,20.68
2022-07-29T00:16:42.945Z,20.60
2022-07-29T00:19:11.701Z,20.54
2022-07-29T00:21:42.033Z,20.51
2022-07-29T00:24:10.779Z,20.44
2022-07-29T00:26:40.638Z,20.39
2022-07-29T00:31:57.767Z,20.27
2022-07-29T00:34:43.319Z,20.22
2022-07-29T00:37:13.171Z,20.17
2022-07-29T00:39:42.079Z,20.09
2022-07-29T00:42:12.033Z,20.11
2022-07-29T00:44:41.371Z,20.06
2022-07-29T00:47:10.851Z,20.04
2022-07-29T00:49:42.286Z,19.98
2022-07-29T00:52:12.753Z,19.96
2022-07-29T00:54:45.916Z,19.97
2022-07-29T00:57:17.299Z,19.98
2022-07-29T00:59:46.464Z,20.01
2022-07-29T01:02:15.217Z,20.00
2022-07-29T01:04:44.297Z,19.96
2022-07-29T01:07:13.640Z,19.89
2022-07-29T01:09:47.169Z,19.85
2022-07-29T01:12:29.796Z,19.83
2022-07-29T01:14:59.932Z,19.76
2022-07-29T01:17:35.209Z,19.69
2022-07-29T01:20:12.805Z,19.63
2022-07-29T01:23:21.578Z,19.60
2022-07-29T01:26:42.015Z,19.60
2022-07-29T01:29:36.075Z,19.61
2022-07-29T01:32:28.651Z,19.62
2022-07-29T01:35:04.257Z,19.63
2022-07-29T01:37:42.165Z,19.62
2022-07-29T01:40:19.381Z,19.62
2022-07-29T01:42:52.658Z,19.61
2022-07-29T01:45:29.613Z,19.57
2022-07-29T01:48:03.429Z,19.53
2022-07-29T01:50:36.620Z,19.43
2022-07-29T01:53:09.232Z,19.38
2022-07-29T01:55:43.546Z,19.30
2022-07-29T01:58:15.379Z,19.21
2022-07-29T02:00:48.286Z,19.13
2022-07-29T02:03:20.054Z,19.08
2022-07-29T02:05:51.848Z,19.07
2022-07-29T02:08:23.400Z,19.03
2022-07-29T02:10:55.108Z,19.05
2022-07-29T02:13:28.557Z,19.03
2022-07-29T02:16:01.083Z,19.06
2022-07-29T02:18:30.842Z,19.11
2022-07-29T02:21:01.893Z,19.12
2022-07-29T02:23:31.558Z,19.15
2022-07-29T02:26:24.560Z,19.17
2022-07-29T02:28:58.876Z,19.18
2022-07-29T02:31:35.355Z,19.18
2022-07-29T02:34:06.366Z,19.19
2022-07-29T02:36:36.285Z,19.20
2022-07-29T02:39:10.548Z,19.21
2022-07-29T02:41:46.106Z,19.22
2022-07-29T02:44:17.327Z,19.25
2022-07-29T02:46:52.166Z,19.26
2022-07-29T02:49:32.417Z,19.29
2022-07-29T02:52:04.342Z,19.33
2022-07-29T02:54:40.747Z,19.35
2022-07-29T02:57:16.501Z,19.35
2022-07-29T02:59:47.879Z,19.36
2022-07-29T03:02:19.229Z,19.35
2022-07-29T03:04:51.789Z,19.39
2022-07-29T03:07:23.325Z,19.38
2022-07-29T03:09:53.326Z,19.39
2022-07-29T03:12:22.779Z,19.40
2022-07-29T03:14:51.765Z,19.45
2022-07-29T03:17:24.430Z,19.48
2022-07-29T03:19:53.519Z,19.53
2022-07-29T03:22:22.573Z,19.57
2022-07-29T03:24:51.869Z,19.60
2022-07-29T03:27:21.282Z,19.63
2022-07-29T03:29:50.729Z,19.66
2022-07-29T03:32:25.097Z,19.68
2022-07-29T03:34:54.156Z,19.74
2022-07-29T03:37:26.459Z,19.76
2022-07-29T03:39:58.954Z,19.77
2022-07-29T03:42:34.156Z,19.83
2022-07-29T03:45:08.294Z,19.88
2022-07-29T03:47:50.973Z,19.91
2022-07-29T03:50:25.784Z,19.97
2022-07-29T03:52:55.086Z,20.02
2022-07-29T03:55:29.403Z,20.01
2022-07-29T03:57:59.279Z,20.00
2022-07-29T04:00:30.041Z,20.00
2022-07-29T04:03:00.993Z,19.95
2022-07-29T04:05:29.603Z,19.90
2022-07-29T04:07:58.524Z,19.87
2022-07-29T04:10:32.078Z,19.87
2022-07-29T04:13:03.612Z,19.87
2022-07-29T04:15:32.117Z,19.91
2022-07-29T04:18:02.282Z,19.94
2022-07-29T04:20:42.146Z,19.96
2022-07-29T04:23:10.919Z,19.97
2022-07-29T04:25:43.175Z,19.95
2022-07-29T04:28:12.723Z,19.92
2022-07-29T04:30:41.823Z,19.85
2022-07-29T04:33:13.496Z,19.84
2022-07-29T04:35:49.730Z,19.80
2022-07-29T04:38:19.528Z,19.80
2022-07-29T04:40:49.729Z,19.76
2022-07-29T04:43:22.529Z,19.74
2022-07-29T04:45:52.434Z,19.72
2022-07-29T04:48:33.312Z,19.69
2022-07-29T04:51:01.956Z,19.68
2022-07-29T04:53:32.429Z,19.70
2022-07-29T04:56:01.698Z,19.66
2022-07-29T04:58:31.025Z,19.69
2022-07-29T05:01:00.228Z,19.69
2022-07-29T05:03:40.980Z,19.75
2022-07-29T05:06:12.734Z,19.77
2022-07-29T05:08:41.915Z,19.83
2022-07-29T05:13:58.713Z,19.87
2022-07-29T05:16:30.158Z,19.88
2022-07-29T05:19:00.497Z,19.88
2022-07-29T05:21:30.455Z,19.87
2022-07-29T05:23:59.615Z,19.90
2022-07-29T05:26:28.777Z,19.92
2022-07-29T05:34:30.792Z,19.98
2022-07-29T05:37:00.526Z,20.03
2022-07-29T05:39:36.621Z,20.06
2022-07-29T05:42:19.072Z,20.13
2022-07-29T05:44:48.924Z,20.19
2022-07-29T05:47:17.454Z,20.26
2022-07-29T05:49:50.707Z,20.35
2022-07-29T05:52:21.686Z,20.45
2022-07-29T05:54:52.553Z,20.51
2022-07-29T05:57:25.359Z,20.63
2022-07-29T05:59:54.917Z,20.69
2022-07-29T06:02:27.011Z,20.76
2022-07-29T06:05:03.749Z,20.83
2022-07-29T06:07:34.112Z,20.90
2022-07-29T06:10:05.177Z,20.94
2022-07-29T06:12:34.179Z,21.00
2022-07-29T06:15:03.265Z,21.03
2022-07-29T06:17:32.854Z,21.08
2022-07-29T06:20:18.950Z,21.17
2022-07-29T06:23:00.308Z,21.23
2022-07-29T06:25:49.771Z,21.27
2022-07-29T06:28:35.047Z,21.37
2022-07-29T06:31:08.408Z,21.39
2022-07-29T06:34:26.005Z,21.42
2022-07-29T06:37:04.278Z,21.41
2022-07-29T06:39:35.384Z,21.49
2022-07-29T06:42:10.753Z,21.49
2022-07-29T06:44:39.188Z,21.54
2022-07-29T06:47:09.305Z,21.59
2022-07-29T06:49:38.166Z,21.65
2022-07-29T06:52:08.141Z,21.71
2022-07-29T06:54:36.408Z,21.79
2022-07-29T06:57:06.001Z,21.91
2022-07-29T06:59:35.956Z,22.04
2022-07-29T07:02:04.886Z,22.13
2022-07-29T07:04:37.671Z,22.24
2022-07-29T07:07:07.796Z,22.38
2022-07-29T07:09:40.494Z,22.52
2022-07-29T07:12:11.359Z,22.67
2022-07-29T07:14:41.324Z,22.84
2022-07-29T07:17:13.242Z,22.94
2022-07-29T07:19:44.354Z,23.06
2022-07-29T07:22:20.758Z,23.14
2022-07-29T07:24:54.891Z,23.14
2022-07-29T07:27:47.127Z,23.24
2022-07-29T07:33:37.569Z,23.30
2022-07-29T07:36:25.002Z,23.43
2022-07-29T07:39:15.883Z,23.53
2022-07-29T07:41:44.441Z,23.62
2022-07-29T07:44:16.364Z,23.73
2022-07-29T07:46:47.029Z,23.76
2022-07-29T07:49:21.328Z,23.81
2022-07-29T07:54:50.925Z,23.93
2022-07-29T07:57:39.896Z,23.99
2022-07-29T08:00:23.321Z,23.99
2022-07-29T08:02:59.874Z,24.03
2022-07-29T08:05:34.944Z,24.02
2022-07-29T08:08:16.602Z,24.08
2022-07-29T08:11:08.765Z,24.12
2022-07-29T08:14:11.493Z,24.29
2022-07-29T08:16:44.863Z,24.48
2022-07-29T08:19:30.465Z,24.61
2022-07-29T08:25:40.918Z,24.97
2022-07-29T08:28:29.635Z,25.08
2022-07-29T08:30:58.297Z,25.18
2022-07-29T08:33:31.442Z,25.33
2022-07-29T08:36:00.102Z,25.42
2022-07-29T08:41:27.046Z,25.61
2022-07-29T08:46:57.014Z,25.98
2022-07-29T08:49:34.233Z,26.26
2022-07-29T08:52:05.855Z,26.51
2022-07-29T08:54:36.987Z,26.73
2022-07-29T08:57:05.779Z,26.97
2022-07-29T08:59:38.775Z,27.17
2022-07-29T09:02:21.180Z,27.39
2022-07-29T09:04:53.026Z,27.56
2022-07-29T09:07:36.011Z,27.73
2022-07-29T09:13:25.658Z,27.91
2022-07-29T09:15:55.897Z,27.98
2022-07-29T09:19:00.184Z,28.03
2022-07-29T09:22:07.014Z,28.11
2022-07-29T09:25:04.788Z,28.27
2022-07-29T09:27:41.720Z,28.40
2022-07-29T09:30:30.468Z,28.52
2022-07-29T09:33:05.519Z,28.60
2022-07-29T09:41:47.326Z,28.84
2022-07-29T09:44:23.444Z,28.98
2022-07-29T09:47:17.106Z,29.07
2022-07-29T09:49:59.507Z,29.21
2022-07-29T09:52:34.764Z,29.35
2022-07-29T09:55:18.100Z,29.50
2022-07-29T09:58:06.380Z,29.62
2022-07-29T10:16:10.427Z,29.47
2022-07-29T10:18:44.868Z,29.43
2022-07-29T10:34:37.850Z,28.87
2022-07-29T10:37:35.530Z,28.64
2022-07-29T10:40:38.433Z,28.40
2022-07-29T10:46:16.009Z,28.31
2022-07-29T10:52:05.784Z,28.06
2022-07-29T10:57:25.910Z,27.84
2022-07-29T11:00:35.124Z,27.70
2022-07-29T11:03:10.577Z,27.72
2022-07-29T11:06:00.294Z,27.83
2022-07-29T11:08:38.419Z,28.01
2022-07-29T11:11:51.484Z,28.16
2022-07-29T11:14:26.444Z,28.36
2022-07-29T11:17:10.261Z,28.43
2022-07-29T11:19:52.545Z,28.55
2022-07-29T11:22:37.237Z,28.58
2022-07-29T11:25:43.035Z,28.59
2022-07-29T11:28:22.681Z,28.65
2022-07-29T11:30:59.176Z,28.77
2022-07-29T11:33:54.815Z,28.94
2022-07-29T11:36:28.206Z,28.86
2022-07-29T11:42:52.002Z,28.53
2022-07-29T11:45:48.359Z,28.41
2022-07-29T11:48:31.500Z,28.45
2022-07-29T11:51:04.761Z,28.47
2022-07-29T11:53:37.168Z,28.46
2022-07-29T11:56:10.395Z,28.60
2022-07-29T11:58:42.699Z,28.73
2022-07-29T12:01:17.183Z,28.83
2022-07-29T12:03:51.807Z,28.84
2022-07-29T12:06:33.876Z,28.71
2022-07-29T12:07:03.237Z,28.72
2022-07-29T12:09:19.187Z,28.32
2022-07-29T12:11:54.207Z,28.21
2022-07-29T12:17:54.200Z,28.31
2022-07-29T12:20:29.257Z,28.42
2022-07-29T12:22:59.392Z,28.60
2022-07-29T12:25:35.575Z,28.76
2022-07-29T12:28:27.390Z,28.82
2022-07-29T12:30:57.326Z,28.96
2022-07-29T12:33:33.240Z,29.10
2022-07-29T12:36:11.586Z,29.25
2022-07-29T12:39:11.454Z,29.31
2022-07-29T12:50:22.106Z,29.73
2022-07-29T12:52:55.667Z,29.77
2022-07-29T12:55:45.656Z,29.73
2022-07-29T12:58:22.114Z,29.70
2022-07-29T13:01:01.936Z,29.87
2022-07-29T13:06:08.833Z,30.04
2022-07-29T13:08:41.031Z,30.03
2022-07-29T13:11:09.690Z,29.76
2022-07-29T13:17:04.044Z,30.14
2022-07-29T13:19:44.826Z,30.19
2022-07-29T13:22:18.160Z,30.05
2022-07-29T13:25:20.924Z,30.14
2022-07-29T13:27:59.495Z,29.90
2022-07-29T13:30:30.123Z,29.66
2022-07-29T13:33:01.998Z,29.66
2022-07-29T13:35:40.152Z,29.56
2022-07-29T13:38:10.394Z,29.24
2022-07-29T13:41:22.938Z,29.51
2022-07-29T13:44:05.176Z,29.49
2022-07-29T13:46:39.553Z,29.97
2022-07-29T13:49:12.569Z,30.67
2022-07-29T13:51:41.271Z,31.36
2022-07-29T13:54:12.636Z,31.89
2022-07-29T13:56:44.564Z,32.37
2022-07-29T13:59:18.976Z,32.64
2022-07-29T14:01:50.572Z,33.08
2022-07-29T14:04:20.201Z,33.53
2022-07-29T14:06:51.098Z,33.52
2022-07-29T14:09:20.862Z,33.55
2022-07-29T14:11:51.582Z,33.36
2022-07-29T14:14:37.857Z,32.63
2022-07-29T14:17:11.368Z,32.75
2022-07-29T14:19:50.478Z,33.21
2022-07-29T14:22:23.089Z,33.54
2022-07-29T14:25:21.201Z,33.72
2022-07-29T14:31:07.272Z,33.47
2022-07-29T14:33:39.730Z,33.69
2022-07-29T14:36:10.688Z,33.85
2022-07-29T14:38:39.750Z,33.70
2022-07-29T14:41:19.734Z,33.53
2022-07-29T14:44:16.434Z,33.33
2022-07-29T14:46:50.009Z,32.88
2022-07-29T14:49:22.239Z,32.73
2022-07-29T14:51:51.920Z,32.58
2022-07-29T14:54:21.728Z,32.64
2022-07-29T14:56:56.784Z,32.25
2022-07-29T14:59:25.743Z,31.92
2022-07-29T15:01:58.625Z,31.50
2022-07-29T15:04:35.409Z,31.36
2022-07-29T15:07:07.235Z,31.43
2022-07-29T15:09:49.312Z,31.40
2022-07-29T15:12:21.043Z,31.15
2022-07-29T15:14:54.054Z,30.86
2022-07-29T15:17:40.412Z,30.85
2022-07-29T15:20:10.433Z,30.92
2022-07-29T15:22:46.044Z,31.17
2022-07-29T15:25:24.618Z,31.72
2022-07-29T15:28:00.943Z,32.22
2022-07-29T15:30:42.756Z,32.35
2022-07-29T15:33:22.090Z,32.51
2022-07-29T15:39:07.808Z,33.37
2022-07-29T15:41:38.776Z,33.35
2022-07-29T15:44:08.637Z,33.31
2022-07-29T15:49:59.731Z,33.57
2022-07-29T15:52:32.225Z,33.63
2022-07-29T15:55:17.551Z,34.16
2022-07-29T15:57:47.900Z,34.75
2022-07-29T16:00:20.112Z,35.03
2022-07-29T16:02:51.187Z,35.51
2022-07-29T16:05:25.389Z,36.01
2022-07-29T16:07:54.222Z,36.55
2022-07-29T16:10:23.676Z,37.07
2022-07-29T16:12:55.642Z,37.17
2022-07-29T16:15:26.198Z,37.18
2022-07-29T16:17:58.212Z,37.15
2022-07-29T16:20:28.295Z,37.13
2022-07-29T16:22:58.204Z,37.19
2022-07-29T16:25:57.580Z,37.40
2022-07-29T16:28:15.860Z,37.80
2022-07-29T16:30:44.626Z,38.01
2022-07-29T16:33:15.213Z,38.12
2022-07-29T16:36:01.043Z,38.33
2022-07-29T16:38:47.205Z,38.55
2022-07-29T16:41:24.276Z,38.26
2022-07-29T16:44:00.299Z,37.54
2022-07-29T16:46:35.142Z,37.46
2022-07-29T16:49:06.524Z,37.41
2022-07-29T16:51:39.095Z,37.21
2022-07-29T16:57:06.781Z,36.45
2022-07-29T16:59:43.374Z,35.27
2022-07-29T17:02:13.016Z,34.35
2022-07-29T17:04:43.258Z,33.67
2022-07-29T17:07:34.146Z,32.95
2022-07-29T17:10:06.261Z,32.35
2022-07-29T17:12:36.847Z,32.00
2022-07-29T17:15:06.829Z,31.83
2022-07-29T17:17:38.913Z,31.90
2022-07-29T17:20:25.003Z,31.82
2022-07-29T17:22:56.568Z,32.22
2022-07-29T17:25:25.137Z,32.60
2022-07-29T17:28:00.725Z,32.89
2022-07-29T17:30:40.538Z,33.26
2022-07-29T17:33:15.709Z,33.43
2022-07-29T17:36:01.808Z,33.29
2022-07-29T17:38:32.393Z,33.34
2022-07-29T17:41:01.555Z,33.24
2022-07-29T17:44:04.165Z,33.44
2022-07-29T17:46:50.555Z,34.02
2022-07-29T17:49:20.566Z,34.87
2022-07-29T17:52:02.037Z,35.59
2022-07-29T17:54:44.153Z,35.98
2022-07-29T17:57:24.906Z,36.28
2022-07-29T17:59:54.244Z,36.12
2022-07-29T18:02:23.797Z,35.60
2022-07-29T18:04:55.201Z,35.47
2022-07-29T18:07:24.664Z,35.35
2022-07-29T18:10:00.902Z,35.39
2022-07-29T18:12:37.180Z,35.43
2022-07-29T18:15:23.228Z,35.16
2022-07-29T18:17:57.765Z,34.96
2022-07-29T18:20:27.676Z,35.00
2022-07-29T18:22:58.551Z,34.97
2022-07-29T18:25:43.966Z,34.65
2022-07-29T18:28:15.808Z,34.58
2022-07-29T18:30:46.522Z,34.31
2022-07-29T18:33:22.633Z,33.98
2022-07-29T18:36:10.002Z,33.79
2022-07-29T18:38:42.946Z,33.50
2022-07-29T18:41:12.692Z,33.40
2022-07-29T18:43:46.170Z,33.57
2022-07-29T18:46:15.463Z,33.88
2022-07-29T18:48:44.064Z,33.94
2022-07-29T18:51:14.336Z,33.49
2022-07-29T18:53:42.610Z,32.95
2022-07-29T18:56:12.351Z,32.76
2022-07-29T18:58:40.997Z,32.82
2022-07-29T19:01:14.764Z,33.00
2022-07-29T19:03:45.262Z,32.99
2022-07-29T19:06:13.931Z,33.43
2022-07-29T19:08:46.792Z,33.37
2022-07-29T19:11:30.719Z,33.16
2022-07-29T19:13:59.056Z,32.42
2022-07-29T19:16:27.490Z,31.85
2022-07-29T19:18:56.396Z,31.42
2022-07-29T19:21:28.121Z,31.06
2022-07-29T19:24:01.411Z,30.65
2022-07-29T19:26:46.625Z,30.26
2022-07-29T19:29:15.113Z,29.91
2022-07-29T19:31:44.277Z,29.45
2022-07-29T19:34:12.827Z,29.03
2022-07-29T19:36:42.083Z,28.74
2022-07-29T19:39:10.747Z,28.47
2022-07-29T19:41:40.661Z,28.27
2022-07-29T19:44:08.950Z,28.01
2022-07-29T19:46:37.600Z,27.72
2022-07-29T19:49:07.012Z,27.45
2022-07-29T19:51:36.274Z,27.23
2022-07-29T19:54:04.930Z,27.06
2022-07-29T19:56:34.618Z,26.83
2022-07-29T19:59:08.508Z,26.62
2022-07-29T20:01:37.262Z,26.41
2022-07-29T20:04:05.889Z,26.30
2022-07-29T20:06:34.276Z,26.20
2022-07-29T20:09:02.627Z,26.09
2022-07-29T20:11:31.077Z,25.91
2022-07-29T20:13:59.999Z,25.75
2022-07-29T20:16:30.177Z,25.58
2022-07-29T20:19:01.015Z,25.50
2022-07-29T20:21:29.536Z,25.36
2022-07-29T20:24:00.530Z,25.28
2022-07-29T20:26:28.785Z,25.19
2022-07-29T20:28:57.267Z,25.13
2022-07-29T20:31:26.046Z,25.03
2022-07-29T20:33:55.650Z,24.97
2022-07-29T20:36:23.850Z,24.89
2022-07-29T20:38:52.556Z,24.83
2022-07-29T20:41:21.839Z,24.77
2022-07-29T20:43:51.201Z,24.69
2022-07-29T20:46:22.245Z,24.64
2022-07-29T20:48:51.214Z,24.59
2022-07-29T20:51:25.275Z,24.54
2022-07-29T20:53:53.792Z,24.47
2022-07-29T20:56:22.523Z,24.43
2022-07-29T20:58:52.558Z,24.36
2022-07-29T21:01:21.989Z,24.29
2022-07-29T21:03:50.861Z,24.26
2022-07-29T21:06:22.907Z,24.20
2022-07-29T21:08:55.907Z,24.14
2022-07-29T21:11:44.797Z,24.09
2022-07-29T21:14:20.283Z,24.02
2022-07-29T21:16:48.622Z,23.96
2022-07-29T21:19:19.304Z,23.88
2022-07-29T21:21:50.650Z,23.81
2022-07-29T21:24:20.123Z,23.74
2022-07-29T21:27:11.000Z,23.66
2022-07-29T21:29:35.877Z,23.54
2022-07-29T21:32:04.337Z,23.42
2022-07-29T21:34:32.610Z,23.32
2022-07-29T21:37:02.568Z,23.27
2022-07-29T21:39:31.280Z,23.19
2022-07-29T21:41:59.714Z,23.14
2022-07-29T21:44:28.886Z,23.11
2022-07-29T21:46:57.485Z,23.05
2022-07-29T21:49:26.187Z,23.02
2022-07-29T21:51:54.726Z,23.04
2022-07-29T21:54:24.659Z,22.96
2022-07-29T21:56:53.456Z,22.94
2022-07-29T21:59:22.498Z,22.98
2022-07-29T22:01:51.153Z,22.94
2022-07-29T22:04:19.804Z,22.84
2022-07-29T22:06:51.004Z,22.69
2022-07-29T22:12:16.750Z,22.60
2022-07-29T22:14:45.276Z,22.63
2022-07-29T22:17:13.862Z,22.60
2022-07-29T22:19:42.563Z,22.52
2022-07-29T22:22:11.086Z,22.42
2022-07-29T22:24:39.402Z,22.29
2022-07-29T22:27:07.675Z,22.23
2022-07-29T22:29:37.789Z,22.16
2022-07-29T22:32:06.553Z,22.17
2022-07-29T22:34:37.228Z,22.16
2022-07-29T22:37:06.541Z,22.17
2022-07-29T22:39:35.387Z,22.16
2022-07-29T22:42:05.163Z,22.12
2022-07-29T22:44:33.443Z,22.06
2022-07-29T22:47:04.139Z,21.98
2022-07-29T22:49:32.590Z,21.93
2022-07-29T22:52:02.346Z,21.87
2022-07-29T22:54:30.791Z,21.79
2022-07-29T22:56:59.455Z,21.70
2022-07-29T22:59:27.992Z,21.63
2022-07-29T23:01:56.443Z,21.56
2022-07-29T23:04:26.441Z,21.54
2022-07-29T23:06:54.837Z,21.51
2022-07-29T23:09:23.113Z,21.52
2022-07-29T23:11:51.479Z,21.46
2022-07-29T23:14:20.047Z,21.40
2022-07-29T23:16:49.229Z,21.34
2022-07-29T23:19:17.816Z,21.29
2022-07-29T23:21:47.436Z,21.27
2022-07-29T23:24:15.622Z,21.26
2022-07-29T23:26:43.758Z,21.22
2022-07-29T23:29:12.053Z,21.18
2022-07-29T23:31:47.757Z,21.09
2022-07-29T23:34:16.645Z,20.99
2022-07-29T23:36:47.677Z,20.91
2022-07-29T23:39:16.263Z,20.81
2022-07-29T23:41:44.463Z,20.75
2022-07-29T23:44:12.594Z,20.72
2022-07-29T23:46:40.923Z,20.65
2022-07-29T23:49:09.246Z,20.62
2022-07-29T23:51:37.473Z,20.57
2022-07-29T23:54:07.319Z,20.58
2022-07-29T23:56:35.531Z,20.61
2022-07-29T23:59:03.983Z,20.62
